Powells Point, North Carolina
Current Conditions -  °F | °C
As of 9:55 PM on Saturday 25 Oct 2014 (Local Time) from KFFA Reporting Station
Clear Clear  
Wind Chill: 60°   Ceiling: Unl
Heat Index: 60°   Visibility: 10mi
Dew Point: 51°   Wind: 6mph
Humidity: 73%   Direction: 240°WSW
Pressure: 29.85"   Gusts: NA
Location:  36.16°N, 75.86°W
Report Text: KFFA 260155Z AUTO 24005KT 10SM CLR 16/11 A2985 RMK AO2 T01560107
Loading
Personal Weather Stations






























Interactive Weather Map
Tropical Storm Tracking
New forecast layout! Learn more

10-Day Weather Forecast

Advertisements
Track Severe Weather on mobile